KHFY Airport (Indy South Greenwood) Information

FAA: HFY - ICAO: KHFY

KHFY Airport Location

State Indiana
County Johnson
City Indianapolis
KHFY Airport is 10 miles southeast of Indianapolis, IN.
Latitude 39-37-39.4000N
Longitude 086-05-16.9000W
Elevation 822ft

KHFY Airport METARs

METAR KHFY 020135Z AUTO 00000KT 10SM CLR M02/M09 A3034 RMK AO2 T10231090
Altimeter 30.34"
Temperature -2.3°C (27.9°F)
Wind 0° at 0KT
Clouds Skies are clear.
Visibility 10.0mi
Time observed: 2023-02-02T01:35:00Z

KHFY Airport Details

Status Operational
Activation September 1947
Ownership Public
Usage Public
Chart ST LOUIS
ATC on-site No
Beacon schedule sunset-sunrise
Beacon color clear green

KHFY Airport Contacts

Owner GREENWOOD BOAC
Owner address 300 S. MADISON AVE, GREENWOOD, IN 46142
Owner phone (317) 881-0887
Manager KENTON TURNER
Manager address 402 WEST WASHINGTON ST RM W-255D, INDIANAPOLIS, IN 46204
Manager phone 317-232-0935

KHFY Airport (Indy South Greenwood) Radio Frequencies

KHFY (Airport) Radio Frequencies

UNICOM 123
Common traffic advisory frequency (CTAF) 123